createdAt,value
2019-03-01T00:01:14.042Z,9.80
2019-03-01T00:03:55.260Z,9.80
2019-03-01T00:06:35.924Z,9.80
2019-03-01T00:09:17.027Z,9.80
2019-03-01T00:11:57.993Z,9.80
2019-03-01T00:14:38.823Z,9.80
2019-03-01T00:17:19.402Z,9.90
2019-03-01T00:20:00.338Z,10.00
2019-03-01T00:22:41.077Z,9.90
2019-03-01T00:25:22.140Z,9.90
2019-03-01T00:28:02.903Z,9.90
2019-03-01T00:30:43.418Z,9.90
2019-03-01T00:33:24.195Z,9.90
2019-03-01T00:36:05.086Z,9.90
2019-03-01T00:38:46.063Z,10.00
2019-03-01T00:41:27.093Z,9.90
2019-03-01T00:44:07.902Z,10.00
2019-03-01T00:46:48.407Z,10.00
2019-03-01T00:49:30.568Z,10.00
2019-03-01T00:52:11.704Z,10.10
2019-03-01T00:54:52.788Z,10.10
2019-03-01T00:57:33.671Z,10.30
2019-03-01T01:00:14.424Z,10.40
2019-03-01T01:02:55.358Z,10.50
2019-03-01T01:05:35.864Z,10.60
2019-03-01T01:08:04.416Z,10.60
2019-03-01T01:10:52.216Z,10.70
2019-03-01T01:13:40.036Z,10.70
2019-03-01T01:16:20.864Z,10.60
2019-03-01T01:19:01.870Z,10.30
2019-03-01T01:21:42.251Z,10.30
2019-03-01T01:24:22.897Z,10.10
2019-03-01T01:27:03.192Z,9.90
2019-03-01T01:29:43.980Z,9.90
2019-03-01T01:32:24.730Z,9.90
2019-03-01T01:35:05.759Z,10.00
2019-03-01T01:37:46.183Z,10.10
2019-03-01T01:40:27.016Z,10.00
2019-03-01T01:42:55.496Z,10.20
2019-03-01T01:45:43.294Z,10.20
2019-03-01T01:48:24.106Z,10.20
2019-03-01T01:51:04.632Z,10.20
2019-03-01T01:53:45.469Z,10.20
2019-03-01T01:56:26.336Z,10.00
2019-03-01T01:59:07.227Z,10.10
2019-03-01T02:01:47.765Z,10.20
2019-03-01T02:04:28.490Z,10.30
2019-03-01T02:07:09.047Z,10.40
2019-03-01T02:09:49.564Z,10.50
2019-03-01T02:12:30.345Z,10.60
2019-03-01T02:15:12.658Z,10.50
2019-03-01T02:17:51.674Z,10.50
2019-03-01T02:20:39.478Z,10.30
2019-03-01T02:23:20.613Z,10.30
2019-03-01T02:26:01.552Z,10.40
2019-03-01T02:28:42.354Z,10.40
2019-03-01T02:31:23.292Z,10.10
2019-03-01T02:34:04.411Z,9.80
2019-03-01T02:36:45.302Z,9.80
2019-03-01T02:39:26.220Z,9.90
2019-03-01T02:42:07.372Z,10.00
2019-03-01T02:44:35.847Z,10.10
2019-03-01T02:47:23.723Z,10.00
2019-03-01T02:50:04.220Z,9.90
2019-03-01T02:52:45.149Z,10.10
2019-03-01T02:55:26.016Z,10.20
2019-03-01T02:58:06.956Z,10.10
2019-03-01T03:00:47.564Z,10.30
2019-03-01T03:03:28.152Z,10.30
2019-03-01T03:06:28.473Z,10.20
2019-03-01T03:09:10.733Z,10.20
2019-03-01T03:11:51.647Z,10.30
2019-03-01T03:14:32.240Z,10.30
2019-03-01T03:17:14.981Z,10.10
2019-03-01T03:19:56.220Z,10.10
2019-03-01T03:22:37.171Z,10.10
2019-03-01T03:25:17.689Z,9.90
2019-03-01T03:27:58.652Z,9.80
2019-03-01T03:30:39.278Z,9.80
2019-03-01T03:33:20.624Z,9.80
2019-03-01T03:36:01.614Z,9.80
2019-03-01T03:38:43.013Z,9.80
2019-03-01T03:41:23.375Z,9.90
2019-03-01T03:44:04.099Z,9.70
2019-03-01T03:46:45.080Z,9.60
2019-03-01T03:49:25.581Z,9.60
2019-03-01T03:52:06.222Z,9.60
2019-03-01T03:54:47.060Z,9.70
2019-03-01T03:57:27.968Z,9.60
2019-03-01T03:59:56.509Z,9.50
2019-03-01T04:02:44.389Z,9.40
2019-03-01T04:05:32.199Z,9.50
2019-03-01T04:08:20.097Z,9.50
2019-03-01T04:11:00.993Z,9.40
2019-03-01T04:13:41.595Z,9.20
2019-03-01T04:16:10.046Z,9.30
2019-03-01T04:18:57.852Z,9.20
2019-03-01T04:21:36.658Z,9.10
2019-03-01T04:24:17.178Z,9.30
2019-03-01T04:26:57.840Z,9.20
2019-03-01T04:29:38.357Z,9.10
2019-03-01T04:32:19.044Z,8.90
2019-03-01T04:34:59.814Z,9.00
2019-03-01T04:37:40.561Z,9.10
2019-03-01T04:43:29.111Z,9.10
2019-03-01T04:46:09.360Z,9.20
2019-03-01T04:48:50.028Z,9.20
2019-03-01T04:51:30.787Z,9.20
2019-03-01T04:54:13.343Z,9.10
2019-03-01T04:56:54.149Z,9.00
2019-03-01T04:59:35.157Z,8.80
2019-03-01T05:02:16.162Z,8.90
2019-03-01T05:04:56.988Z,8.80
2019-03-01T05:07:38.014Z,8.70
2019-03-01T05:10:18.805Z,8.70
2019-03-01T05:12:59.704Z,8.70
2019-03-01T05:15:40.253Z,8.80
2019-03-01T05:18:20.800Z,8.70
2019-03-01T05:21:01.674Z,8.50
2019-03-01T05:23:42.088Z,8.70
2019-03-01T05:26:22.740Z,8.70
2019-03-01T05:29:03.202Z,8.60
2019-03-01T05:31:44.136Z,8.60
2019-03-01T05:34:24.746Z,8.60
2019-03-01T05:37:05.674Z,8.40
2019-03-01T05:39:46.451Z,8.40
2019-03-01T05:42:27.182Z,8.40
2019-03-01T05:45:08.041Z,8.30
2019-03-01T05:47:48.981Z,8.30
2019-03-01T05:50:29.629Z,8.20
2019-03-01T05:53:10.672Z,8.20
2019-03-01T05:55:51.177Z,8.20
2019-03-01T05:58:31.590Z,8.40
2019-03-01T06:01:12.486Z,8.30
2019-03-01T06:03:53.394Z,8.40
2019-03-01T06:06:33.973Z,8.20
2019-03-01T06:09:14.347Z,8.30
2019-03-01T06:11:55.117Z,8.40
2019-03-01T06:14:35.983Z,8.30
2019-03-01T06:17:17.072Z,8.30
2019-03-01T06:19:57.415Z,8.40
2019-03-01T06:22:38.204Z,8.50
2019-03-01T06:25:18.689Z,8.70
2019-03-01T06:27:59.427Z,8.60
2019-03-01T06:30:40.183Z,8.50
2019-03-01T06:33:20.982Z,8.40
2019-03-01T06:36:01.925Z,8.50
2019-03-01T06:38:47.342Z,8.40
2019-03-01T06:41:32.376Z,8.60
2019-03-01T06:47:27.986Z,8.50
2019-03-01T06:50:10.196Z,8.30
2019-03-01T06:52:51.166Z,8.40
2019-03-01T06:55:31.616Z,8.50
2019-03-01T06:58:12.478Z,8.50
2019-03-01T07:00:57.482Z,8.50
2019-03-01T07:03:37.860Z,8.40
2019-03-01T07:06:18.634Z,8.60
2019-03-01T07:08:47.135Z,8.60
2019-03-01T07:11:34.932Z,8.60
2019-03-01T07:14:15.972Z,8.50
2019-03-01T07:16:56.684Z,8.70
2019-03-01T07:19:37.483Z,8.80
2019-03-01T07:22:18.367Z,8.90
2019-03-01T07:24:59.294Z,8.80
2019-03-01T07:27:40.116Z,8.80
2019-03-01T07:30:20.844Z,8.50
2019-03-01T07:33:01.659Z,8.50
2019-03-01T07:35:42.504Z,8.50
2019-03-01T07:38:23.326Z,8.40
2019-03-01T07:41:04.015Z,8.50
2019-03-01T07:43:44.685Z,8.50
2019-03-01T07:46:25.661Z,8.60
2019-03-01T07:48:54.228Z,8.70
2019-03-01T07:51:42.037Z,8.70
2019-03-01T07:54:23.018Z,8.50
2019-03-01T07:57:03.827Z,8.70
2019-03-01T07:59:44.609Z,8.60
2019-03-01T08:02:25.357Z,8.50
2019-03-01T08:05:05.955Z,8.30
2019-03-01T08:07:55.685Z,8.30
2019-03-01T08:10:29.400Z,8.40
2019-03-01T08:13:14.776Z,8.50
2019-03-01T08:15:54.280Z,8.40
2019-03-01T08:18:34.926Z,8.60
2019-03-01T08:21:06.270Z,8.70
2019-03-01T08:23:52.960Z,8.70
2019-03-01T08:26:34.050Z,8.70
2019-03-01T08:29:16.027Z,8.80
2019-03-01T08:31:56.954Z,8.60
2019-03-01T08:34:37.697Z,8.70
2019-03-01T08:37:08.160Z,8.80
2019-03-01T08:39:55.728Z,8.80
2019-03-01T08:42:36.571Z,8.70
2019-03-01T08:45:18.046Z,8.60
2019-03-01T08:47:59.708Z,8.50
2019-03-01T08:50:40.695Z,8.50
2019-03-01T08:53:11.386Z,8.60
2019-03-01T08:55:58.762Z,8.50
2019-03-01T08:58:41.572Z,8.60
2019-03-01T09:01:22.051Z,8.40
2019-03-01T09:04:02.792Z,8.40
2019-03-01T09:06:43.371Z,8.30
2019-03-01T09:09:24.975Z,8.30
2019-03-01T09:12:06.218Z,8.10
2019-03-01T09:14:46.727Z,8.20
2019-03-01T09:17:27.388Z,8.10
2019-03-01T09:20:07.972Z,7.80
2019-03-01T09:22:48.956Z,7.80
2019-03-01T09:25:29.551Z,7.90
2019-03-01T09:27:58.029Z,7.70
2019-03-01T09:30:45.861Z,7.70
2019-03-01T09:33:27.134Z,7.80
2019-03-01T09:36:14.458Z,7.70
2019-03-01T09:38:54.785Z,7.80
2019-03-01T09:41:36.551Z,7.60
2019-03-01T09:44:18.644Z,7.50
2019-03-01T09:47:01.697Z,7.50
2019-03-01T09:49:29.787Z,7.40
2019-03-01T09:52:20.401Z,7.40
2019-03-01T09:55:08.106Z,7.50
2019-03-01T09:57:49.109Z,7.40
2019-03-01T10:00:30.021Z,7.40
2019-03-01T10:03:11.245Z,7.50
2019-03-01T10:05:51.886Z,7.40
2019-03-01T10:08:32.713Z,7.40
2019-03-01T10:11:13.716Z,7.50
2019-03-01T10:13:54.385Z,7.60
2019-03-01T10:16:35.059Z,7.50
2019-03-01T10:19:03.676Z,7.60
2019-03-01T10:21:51.476Z,7.50
2019-03-01T10:24:32.474Z,7.40
2019-03-01T10:27:13.296Z,7.40
2019-03-01T10:29:53.875Z,7.50
2019-03-01T10:32:34.756Z,7.50
2019-03-01T10:35:16.229Z,7.40
2019-03-01T10:37:57.293Z,7.40
2019-03-01T10:40:38.114Z,7.60
2019-03-01T10:43:19.121Z,7.40
2019-03-01T10:45:59.879Z,7.40
2019-03-01T10:48:40.532Z,7.40
2019-03-01T10:51:21.037Z,7.50
2019-03-01T10:54:01.575Z,7.40
2019-03-01T10:56:42.043Z,7.60
2019-03-01T10:59:22.408Z,7.60
2019-03-01T11:02:02.908Z,7.60
2019-03-01T11:04:43.812Z,7.50
2019-03-01T11:07:24.861Z,7.50
2019-03-01T11:10:05.550Z,7.50
2019-03-01T11:12:46.340Z,7.80
2019-03-01T11:15:26.996Z,7.80
2019-03-01T11:18:08.030Z,7.90
2019-03-01T11:20:51.146Z,8.10
2019-03-01T11:23:31.564Z,8.30
2019-03-01T11:26:12.304Z,8.50
2019-03-01T11:28:53.324Z,8.40
2019-03-01T11:31:34.459Z,8.50
2019-03-01T11:34:15.464Z,8.70
2019-03-01T11:36:56.372Z,8.70
2019-03-01T11:39:37.113Z,8.70
2019-03-01T11:42:17.984Z,8.70
2019-03-01T11:44:58.754Z,8.70
2019-03-01T11:47:39.351Z,8.60
2019-03-01T11:50:20.374Z,8.40
2019-03-01T11:53:01.218Z,8.40
2019-03-01T11:55:42.423Z,8.50
2019-03-01T11:58:23.563Z,8.30
2019-03-01T12:01:04.560Z,8.30
2019-03-01T12:03:33.084Z,8.50
2019-03-01T12:06:20.901Z,8.40
2019-03-01T12:09:08.793Z,8.30
2019-03-01T12:11:49.075Z,8.30
2019-03-01T12:14:29.451Z,8.40
2019-03-01T12:17:10.258Z,8.40
2019-03-01T12:19:51.847Z,8.70
2019-03-01T12:22:32.194Z,8.70
2019-03-01T12:25:13.132Z,9.50
2019-03-01T12:27:53.891Z,9.90
2019-03-01T12:30:34.875Z,10.20
2019-03-01T12:33:15.178Z,9.90
2019-03-01T12:35:55.583Z,9.80
2019-03-01T12:38:36.516Z,9.40
2019-03-01T12:41:17.248Z,9.00
2019-03-01T12:43:57.700Z,9.20
2019-03-01T12:46:38.379Z,9.00
2019-03-01T12:49:19.449Z,8.80
2019-03-01T12:52:00.474Z,8.90
2019-03-01T12:54:41.052Z,9.00
2019-03-01T12:57:21.616Z,9.10
2019-03-01T13:00:02.374Z,9.20
2019-03-01T13:02:42.699Z,9.50
2019-03-01T13:05:25.691Z,9.50
2019-03-01T13:08:06.129Z,9.30
2019-03-01T13:10:46.837Z,9.20
2019-03-01T13:13:27.536Z,9.10
2019-03-01T13:16:08.128Z,9.00
2019-03-01T13:18:51.281Z,8.50
2019-03-01T13:21:31.091Z,8.40
2019-03-01T13:24:12.603Z,8.50
2019-03-01T13:26:54.377Z,8.40
2019-03-01T13:29:35.334Z,8.20
2019-03-01T13:32:15.911Z,8.20
2019-03-01T13:34:56.846Z,8.30
2019-03-01T13:37:37.712Z,8.10
2019-03-01T13:40:20.958Z,8.30
2019-03-01T13:43:00.838Z,8.40
2019-03-01T13:45:41.636Z,8.70
2019-03-01T13:48:22.589Z,8.70
2019-03-01T13:51:03.206Z,8.70
2019-03-01T13:53:48.954Z,8.50
2019-03-01T13:56:24.353Z,8.60
2019-03-01T13:59:05.390Z,8.60
2019-03-01T14:01:47.727Z,8.50
2019-03-01T14:04:28.913Z,8.70
2019-03-01T14:07:09.861Z,8.40
2019-03-01T14:09:50.381Z,8.60
2019-03-01T14:12:30.617Z,8.40
2019-03-01T14:15:11.769Z,8.40
2019-03-01T14:17:52.392Z,8.60
2019-03-01T14:20:32.980Z,8.30
2019-03-01T14:23:13.590Z,8.60
2019-03-01T14:25:42.354Z,8.60
2019-03-01T14:28:31.588Z,8.60
2019-03-01T14:31:19.398Z,8.70
2019-03-01T14:33:59.666Z,8.60
2019-03-01T14:36:43.132Z,8.60
2019-03-01T14:39:23.102Z,8.70
2019-03-01T14:42:06.953Z,8.80
2019-03-01T14:44:46.444Z,8.70
2019-03-01T14:47:29.034Z,8.70
2019-03-01T14:50:10.063Z,8.70
2019-03-01T14:52:56.697Z,8.60
2019-03-01T14:55:34.408Z,8.50
2019-03-01T14:58:15.118Z,8.50
2019-03-01T15:00:56.161Z,8.40
2019-03-01T15:03:36.640Z,8.40
2019-03-01T15:06:19.230Z,8.40
2019-03-01T15:09:00.270Z,8.40
2019-03-01T15:11:44.147Z,8.40
2019-03-01T15:14:23.651Z,8.30
2019-03-01T15:17:04.206Z,8.40
2019-03-01T15:19:45.426Z,8.40
2019-03-01T15:22:26.456Z,8.40
2019-03-01T15:24:55.020Z,8.50
2019-03-01T15:27:42.813Z,8.40
2019-03-01T15:30:23.788Z,8.30
2019-03-01T15:33:04.630Z,8.30
2019-03-01T15:35:45.444Z,8.30
2019-03-01T15:38:27.654Z,8.20
2019-03-01T15:41:09.157Z,8.20
2019-03-01T15:43:49.769Z,8.20
2019-03-01T15:46:30.632Z,8.30
2019-03-01T15:49:14.902Z,8.30
2019-03-01T15:51:54.137Z,8.40
2019-03-01T15:54:35.917Z,8.50
2019-03-01T15:57:18.816Z,8.20
2019-03-01T15:59:59.673Z,8.30
2019-03-01T16:02:40.335Z,8.10
2019-03-01T16:05:20.911Z,8.20
2019-03-01T16:08:01.861Z,8.20
2019-03-01T16:10:42.733Z,8.30
2019-03-01T16:13:23.342Z,8.30
2019-03-01T16:16:04.319Z,8.20
2019-03-01T16:18:45.178Z,8.30
2019-03-01T16:21:26.352Z,8.30
2019-03-01T16:24:08.079Z,8.40
2019-03-01T16:26:49.416Z,8.40
2019-03-01T16:29:17.881Z,8.40
2019-03-01T16:32:08.121Z,8.30
2019-03-01T16:34:48.608Z,8.10
2019-03-01T16:37:29.388Z,8.30
2019-03-01T16:40:10.522Z,8.10
2019-03-01T16:42:54.396Z,8.20
2019-03-01T16:45:33.724Z,8.30
2019-03-01T16:48:16.919Z,8.40
2019-03-01T16:50:57.466Z,8.40
2019-03-01T16:53:40.602Z,8.40
2019-03-01T16:56:21.539Z,8.40
2019-03-01T16:58:50.055Z,8.50
2019-03-01T17:01:18.524Z,8.50
2019-03-01T17:03:49.605Z,8.50
2019-03-01T17:06:17.195Z,8.60
2019-03-01T17:08:45.712Z,8.70
2019-03-01T17:11:14.240Z,8.50
2019-03-01T17:13:42.723Z,8.60
2019-03-01T17:16:11.196Z,8.70
2019-03-01T17:18:39.646Z,8.50
2019-03-01T17:21:08.866Z,8.40
2019-03-01T17:23:39.401Z,8.40
2019-03-01T17:26:07.598Z,8.40
2019-03-01T17:28:36.069Z,8.40
2019-03-01T17:31:04.588Z,8.60
2019-03-01T17:33:33.052Z,8.60
2019-03-01T17:36:01.559Z,8.70
2019-03-01T17:38:30.027Z,8.30
2019-03-01T17:40:58.481Z,8.30
2019-03-01T17:43:29.656Z,8.20
2019-03-01T17:45:57.876Z,8.40
2019-03-01T17:48:26.967Z,8.50
2019-03-01T17:50:55.491Z,8.40
2019-03-01T17:53:25.471Z,8.60
2019-03-01T17:55:54.058Z,8.50
2019-03-01T17:58:23.077Z,8.30
2019-03-01T18:00:51.532Z,8.30
2019-03-01T18:03:20.103Z,8.20
2019-03-01T18:05:48.575Z,8.20
2019-03-01T18:08:17.092Z,8.30
2019-03-01T18:10:45.575Z,8.50
2019-03-01T18:13:15.063Z,8.40
2019-03-01T18:15:45.024Z,8.30
2019-03-01T18:18:13.927Z,8.20
2019-03-01T18:20:42.448Z,8.30
2019-03-01T18:23:10.913Z,8.40
2019-03-01T18:25:39.453Z,8.60
2019-03-01T18:28:08.008Z,8.50
2019-03-01T18:30:36.672Z,8.30
2019-03-01T18:33:05.337Z,8.30
2019-03-01T18:35:33.854Z,8.40
2019-03-01T18:38:02.324Z,8.30
2019-03-01T18:40:30.786Z,8.50
2019-03-01T18:42:59.232Z,8.50
2019-03-01T18:45:28.053Z,8.30
2019-03-01T18:47:56.571Z,8.40
2019-03-01T18:50:35.196Z,8.50
2019-03-01T18:53:04.348Z,8.50
2019-03-01T18:55:33.120Z,8.60
2019-03-01T18:58:01.734Z,8.50
2019-03-01T19:00:38.835Z,8.60
2019-03-01T19:03:07.636Z,8.60
2019-03-01T19:05:40.348Z,8.70
2019-03-01T19:08:06.795Z,8.50
2019-03-01T19:10:35.996Z,8.20
2019-03-01T19:13:04.681Z,8.40
2019-03-01T19:15:33.480Z,8.30
2019-03-01T19:18:04.159Z,7.90
2019-03-01T19:20:41.366Z,8.10
2019-03-01T19:23:08.274Z,8.20
2019-03-01T19:25:39.660Z,7.90
2019-03-01T19:28:08.339Z,7.70
2019-03-01T19:30:36.860Z,7.80
2019-03-01T19:33:05.476Z,7.70
2019-03-01T19:35:34.031Z,7.50
2019-03-01T19:38:02.573Z,7.50
2019-03-01T19:40:31.098Z,7.50
2019-03-01T19:43:01.284Z,7.60
2019-03-01T19:45:29.825Z,7.60
2019-03-01T19:48:03.231Z,8.00
2019-03-01T19:50:29.598Z,8.10
2019-03-01T19:52:58.113Z,7.90
2019-03-01T19:55:30.322Z,7.50
2019-03-01T19:57:58.870Z,7.40
2019-03-01T20:00:30.397Z,7.50
2019-03-01T20:02:58.916Z,7.50
2019-03-01T20:05:33.019Z,7.60
2019-03-01T20:08:01.729Z,8.00
2019-03-01T20:10:36.966Z,8.30
2019-03-01T20:13:07.101Z,8.30
2019-03-01T20:15:36.828Z,8.10
2019-03-01T20:18:06.665Z,7.90
2019-03-01T20:20:35.681Z,7.60
2019-03-01T20:23:05.614Z,7.40
2019-03-01T20:25:34.074Z,7.40
2019-03-01T20:28:02.608Z,7.30
2019-03-01T20:30:36.476Z,7.40
2019-03-01T20:33:05.092Z,7.30
2019-03-01T20:35:33.610Z,7.30
2019-03-01T20:38:04.357Z,7.30
2019-03-01T20:40:32.271Z,7.70
2019-03-01T20:43:06.309Z,7.70
2019-03-01T20:45:38.679Z,7.90
2019-03-01T20:48:09.540Z,8.00
2019-03-01T20:50:38.032Z,8.00
2019-03-01T20:53:10.167Z,7.70
2019-03-01T20:55:38.480Z,7.40
2019-03-01T20:58:09.688Z,7.30
2019-03-01T21:00:39.841Z,7.40
2019-03-01T21:03:08.296Z,7.30
2019-03-01T21:05:39.409Z,7.30
2019-03-01T21:08:07.844Z,7.10
2019-03-01T21:10:36.372Z,7.10
2019-03-01T21:13:04.823Z,7.20
2019-03-01T21:15:34.617Z,7.20
2019-03-01T21:18:03.447Z,7.30
2019-03-01T21:20:31.916Z,7.50
2019-03-01T21:23:00.355Z,7.60
2019-03-01T21:25:28.829Z,7.30
2019-03-01T21:27:57.672Z,7.20
2019-03-01T21:30:30.539Z,7.10
2019-03-01T21:32:59.046Z,7.10
2019-03-01T21:35:27.516Z,7.10
2019-03-01T21:37:56.105Z,7.20
2019-03-01T21:40:24.562Z,7.10
2019-03-01T21:42:57.396Z,7.10
2019-03-01T21:45:24.318Z,7.10
2019-03-01T21:47:52.874Z,7.00
2019-03-01T21:50:21.505Z,7.30
2019-03-01T21:52:50.106Z,7.20
2019-03-01T21:55:20.770Z,7.10
2019-03-01T21:57:49.287Z,7.20
2019-03-01T22:00:25.405Z,7.20
2019-03-01T22:02:54.324Z,7.40
2019-03-01T22:05:23.200Z,7.40
2019-03-01T22:07:52.011Z,7.30
2019-03-01T22:10:20.531Z,7.20
2019-03-01T22:12:48.989Z,7.10
2019-03-01T22:15:25.373Z,7.10
2019-03-01T22:17:53.489Z,7.00
2019-03-01T22:20:22.683Z,7.10
2019-03-01T22:22:51.245Z,7.10
2019-03-01T22:25:19.750Z,7.10
2019-03-01T22:27:48.353Z,7.10
2019-03-01T22:30:28.617Z,7.10
2019-03-01T22:32:57.139Z,7.00
2019-03-01T22:35:25.595Z,7.00
2019-03-01T22:37:54.081Z,7.10
2019-03-01T22:40:23.884Z,7.00
2019-03-01T22:42:52.747Z,7.00
2019-03-01T22:45:21.218Z,7.00
2019-03-01T22:47:49.678Z,7.10
2019-03-01T22:50:19.442Z,7.30
2019-03-01T22:52:48.003Z,7.10
2019-03-01T22:55:17.387Z,7.10
2019-03-01T22:57:46.061Z,6.80
2019-03-01T23:00:47.218Z,6.80
2019-03-01T23:03:19.019Z,6.90
2019-03-01T23:05:46.976Z,6.60
2019-03-01T23:08:15.435Z,6.60
2019-03-01T23:10:44.198Z,6.50
2019-03-01T23:13:12.721Z,6.60
2019-03-01T23:15:43.441Z,6.40
2019-03-01T23:18:11.376Z,6.40
2019-03-01T23:20:39.994Z,6.50
2019-03-01T23:23:10.023Z,6.40
2019-03-01T23:25:38.535Z,6.40
2019-03-01T23:28:08.232Z,6.60
2019-03-01T23:30:37.339Z,6.70
2019-03-01T23:33:05.924Z,6.80
2019-03-01T23:35:34.635Z,6.80
2019-03-01T23:38:03.116Z,6.50
2019-03-01T23:40:32.712Z,6.50
2019-03-01T23:43:01.885Z,6.20
2019-03-01T23:45:30.344Z,6.30
2019-03-01T23:47:58.798Z,6.20
2019-03-01T23:50:27.272Z,6.50
2019-03-01T23:52:58.829Z,6.60
2019-03-01T23:55:25.889Z,6.30
2019-03-01T23:57:54.364Z,6.50
